sensor_id;sensor_type;location;lat;lon;timestamp;P1;durP1;ratioP1;P2;durP2;ratioP2
18228;SDS011;9239;50.932;3.142;2022-12-15T00:00:14;33.27;;;25.87;;
18228;SDS011;9239;50.932;3.142;2022-12-15T00:03:02;36.97;;;24.73;;
18228;SDS011;9239;50.932;3.142;2022-12-15T00:05:48;30.50;;;23.63;;
18228;SDS011;9239;50.932;3.142;2022-12-15T00:08:33;33.10;;;24.83;;
18228;SDS011;9239;50.932;3.142;2022-12-15T00:11:17;32.50;;;24.27;;
18228;SDS011;9239;50.932;3.142;2022-12-15T00:14:03;31.37;;;23.60;;
18228;SDS011;9239;50.932;3.142;2022-12-15T00:16:47;32.27;;;23.77;;
18228;SDS011;9239;50.932;3.142;2022-12-15T00:19:31;32.27;;;24.40;;
18228;SDS011;9239;50.932;3.142;2022-12-15T00:22:16;28.80;;;23.50;;
18228;SDS011;9239;50.932;3.142;2022-12-15T00:25:00;34.40;;;25.37;;
18228;SDS011;9239;50.932;3.142;2022-12-15T00:27:45;34.93;;;24.60;;
18228;SDS011;9239;50.932;3.142;2022-12-15T00:30:30;34.73;;;24.97;;
18228;SDS011;9239;50.932;3.142;2022-12-15T00:33:15;34.53;;;25.00;;
18228;SDS011;9239;50.932;3.142;2022-12-15T00:35:59;32.67;;;24.43;;
18228;SDS011;9239;50.932;3.142;2022-12-15T00:38:43;33.10;;;23.33;;
18228;SDS011;9239;50.932;3.142;2022-12-15T00:41:12;30.67;;;25.33;;
18228;SDS011;9239;50.932;3.142;2022-12-15T00:43:40;30.80;;;23.87;;
18228;SDS011;9239;50.932;3.142;2022-12-15T00:46:08;31.50;;;25.00;;
18228;SDS011;9239;50.932;3.142;2022-12-15T00:49:04;33.83;;;24.83;;
18228;SDS011;9239;50.932;3.142;2022-12-15T00:51:51;30.07;;;24.60;;
18228;SDS011;9239;50.932;3.142;2022-12-15T00:54:36;35.43;;;23.63;;
18228;SDS011;9239;50.932;3.142;2022-12-15T00:57:20;30.37;;;24.47;;
18228;SDS011;9239;50.932;3.142;2022-12-15T01:00:05;29.47;;;21.97;;
18228;SDS011;9239;50.932;3.142;2022-12-15T01:02:52;32.50;;;23.33;;
18228;SDS011;9239;50.932;3.142;2022-12-15T01:05:37;31.90;;;23.17;;
18228;SDS011;9239;50.932;3.142;2022-12-15T01:08:21;31.73;;;23.23;;
18228;SDS011;9239;50.932;3.142;2022-12-15T01:11:05;34.07;;;23.43;;
18228;SDS011;9239;50.932;3.142;2022-12-15T01:13:49;31.83;;;22.80;;
18228;SDS011;9239;50.932;3.142;2022-12-15T01:16:33;31.10;;;23.03;;
18228;SDS011;9239;50.932;3.142;2022-12-15T01:19:19;32.97;;;23.47;;
18228;SDS011;9239;50.932;3.142;2022-12-15T01:22:04;28.33;;;22.33;;
18228;SDS011;9239;50.932;3.142;2022-12-15T01:24:32;34.80;;;24.47;;
18228;SDS011;9239;50.932;3.142;2022-12-15T01:26:58;32.53;;;23.60;;
18228;SDS011;9239;50.932;3.142;2022-12-15T01:29:25;31.63;;;23.20;;
18228;SDS011;9239;50.932;3.142;2022-12-15T01:31:52;30.97;;;23.20;;
18228;SDS011;9239;50.932;3.142;2022-12-15T01:34:20;31.47;;;22.50;;
18228;SDS011;9239;50.932;3.142;2022-12-15T01:36:47;28.13;;;21.60;;
18228;SDS011;9239;50.932;3.142;2022-12-15T01:39:14;29.67;;;21.93;;
18228;SDS011;9239;50.932;3.142;2022-12-15T01:41:41;32.80;;;23.03;;
18228;SDS011;9239;50.932;3.142;2022-12-15T01:44:16;30.60;;;21.43;;
18228;SDS011;9239;50.932;3.142;2022-12-15T01:46:44;32.70;;;23.07;;
18228;SDS011;9239;50.932;3.142;2022-12-15T01:49:14;29.40;;;23.30;;
18228;SDS011;9239;50.932;3.142;2022-12-15T01:51:45;33.63;;;23.73;;
18228;SDS011;9239;50.932;3.142;2022-12-15T01:54:15;30.80;;;23.17;;
18228;SDS011;9239;50.932;3.142;2022-12-15T01:56:46;31.60;;;23.10;;
18228;SDS011;9239;50.932;3.142;2022-12-15T01:59:16;34.30;;;23.60;;
18228;SDS011;9239;50.932;3.142;2022-12-15T02:01:46;30.70;;;23.30;;
18228;SDS011;9239;50.932;3.142;2022-12-15T02:04:13;27.87;;;20.93;;
18228;SDS011;9239;50.932;3.142;2022-12-15T02:06:41;31.47;;;22.90;;
18228;SDS011;9239;50.932;3.142;2022-12-15T02:09:09;32.80;;;24.40;;
18228;SDS011;9239;50.932;3.142;2022-12-15T02:14:30;32.10;;;22.73;;
18228;SDS011;9239;50.932;3.142;2022-12-15T02:17:15;32.97;;;23.13;;
18228;SDS011;9239;50.932;3.142;2022-12-15T02:22:56;33.40;;;23.73;;
18228;SDS011;9239;50.932;3.142;2022-12-15T02:26:01;32.63;;;22.47;;
18228;SDS011;9239;50.932;3.142;2022-12-15T02:28:46;33.77;;;24.13;;
18228;SDS011;9239;50.932;3.142;2022-12-15T02:31:21;35.00;;;24.40;;
18228;SDS011;9239;50.932;3.142;2022-12-15T02:34:10;34.17;;;23.60;;
18228;SDS011;9239;50.932;3.142;2022-12-15T02:36:45;29.40;;;22.27;;
18228;SDS011;9239;50.932;3.142;2022-12-15T02:39:14;38.37;;;25.53;;
18228;SDS011;9239;50.932;3.142;2022-12-15T02:41:44;31.27;;;24.00;;
18228;SDS011;9239;50.932;3.142;2022-12-15T02:44:14;37.33;;;24.80;;
18228;SDS011;9239;50.932;3.142;2022-12-15T02:47:01;30.60;;;23.33;;
18228;SDS011;9239;50.932;3.142;2022-12-15T02:49:44;34.80;;;24.80;;
18228;SDS011;9239;50.932;3.142;2022-12-15T02:52:25;32.70;;;23.63;;
18228;SDS011;9239;50.932;3.142;2022-12-15T02:55:06;36.70;;;25.73;;
18228;SDS011;9239;50.932;3.142;2022-12-15T02:57:40;40.27;;;27.13;;
18228;SDS011;9239;50.932;3.142;2022-12-15T03:00:12;40.13;;;27.13;;
18228;SDS011;9239;50.932;3.142;2022-12-15T03:02:43;42.43;;;27.73;;
18228;SDS011;9239;50.932;3.142;2022-12-15T03:05:13;43.63;;;28.00;;
18228;SDS011;9239;50.932;3.142;2022-12-15T03:07:41;41.23;;;29.30;;
18228;SDS011;9239;50.932;3.142;2022-12-15T03:10:09;46.57;;;31.33;;
18228;SDS011;9239;50.932;3.142;2022-12-15T03:12:38;46.80;;;31.10;;
18228;SDS011;9239;50.932;3.142;2022-12-15T03:15:05;45.13;;;29.70;;
18228;SDS011;9239;50.932;3.142;2022-12-15T03:17:33;39.10;;;28.47;;
18228;SDS011;9239;50.932;3.142;2022-12-15T03:20:01;43.07;;;29.23;;
18228;SDS011;9239;50.932;3.142;2022-12-15T03:22:28;40.57;;;28.67;;
18228;SDS011;9239;50.932;3.142;2022-12-15T03:24:55;40.93;;;30.17;;
18228;SDS011;9239;50.932;3.142;2022-12-15T03:27:22;37.70;;;27.63;;
18228;SDS011;9239;50.932;3.142;2022-12-15T03:29:49;47.83;;;31.00;;
18228;SDS011;9239;50.932;3.142;2022-12-15T03:32:16;42.70;;;29.47;;
18228;SDS011;9239;50.932;3.142;2022-12-15T03:34:43;42.27;;;30.00;;
18228;SDS011;9239;50.932;3.142;2022-12-15T03:37:11;38.13;;;28.30;;
18228;SDS011;9239;50.932;3.142;2022-12-15T03:39:38;44.47;;;29.40;;
18228;SDS011;9239;50.932;3.142;2022-12-15T03:42:04;40.77;;;28.60;;
18228;SDS011;9239;50.932;3.142;2022-12-15T03:44:31;44.20;;;29.43;;
18228;SDS011;9239;50.932;3.142;2022-12-15T03:46:58;42.03;;;28.17;;
18228;SDS011;9239;50.932;3.142;2022-12-15T03:49:25;44.63;;;28.97;;
18228;SDS011;9239;50.932;3.142;2022-12-15T03:51:52;44.77;;;29.70;;
18228;SDS011;9239;50.932;3.142;2022-12-15T03:54:20;50.27;;;31.93;;
18228;SDS011;9239;50.932;3.142;2022-12-15T03:56:47;41.47;;;32.03;;
18228;SDS011;9239;50.932;3.142;2022-12-15T03:59:14;46.43;;;33.70;;
18228;SDS011;9239;50.932;3.142;2022-12-15T04:01:44;48.40;;;33.47;;
18228;SDS011;9239;50.932;3.142;2022-12-15T04:04:13;54.77;;;35.37;;
18228;SDS011;9239;50.932;3.142;2022-12-15T04:06:40;50.93;;;36.07;;
18228;SDS011;9239;50.932;3.142;2022-12-15T04:09:07;49.50;;;34.97;;
18228;SDS011;9239;50.932;3.142;2022-12-15T04:11:35;51.43;;;33.80;;
18228;SDS011;9239;50.932;3.142;2022-12-15T04:14:02;54.77;;;34.33;;
18228;SDS011;9239;50.932;3.142;2022-12-15T04:16:28;46.97;;;34.87;;
18228;SDS011;9239;50.932;3.142;2022-12-15T04:18:55;52.93;;;35.17;;
18228;SDS011;9239;50.932;3.142;2022-12-15T04:21:36;51.70;;;36.70;;
18228;SDS011;9239;50.932;3.142;2022-12-15T04:24:03;57.63;;;40.33;;
18228;SDS011;9239;50.932;3.142;2022-12-15T04:26:50;58.23;;;38.60;;
18228;SDS011;9239;50.932;3.142;2022-12-15T04:29:34;55.00;;;37.80;;
18228;SDS011;9239;50.932;3.142;2022-12-15T04:32:18;51.67;;;38.17;;
18228;SDS011;9239;50.932;3.142;2022-12-15T04:35:03;51.57;;;37.07;;
18228;SDS011;9239;50.932;3.142;2022-12-15T04:37:48;57.73;;;39.10;;
18228;SDS011;9239;50.932;3.142;2022-12-15T04:40:32;49.17;;;37.50;;
18228;SDS011;9239;50.932;3.142;2022-12-15T04:43:18;53.00;;;38.20;;
18228;SDS011;9239;50.932;3.142;2022-12-15T04:46:03;53.63;;;38.73;;
18228;SDS011;9239;50.932;3.142;2022-12-15T04:48:47;52.43;;;38.67;;
18228;SDS011;9239;50.932;3.142;2022-12-15T04:51:32;58.37;;;39.33;;
18228;SDS011;9239;50.932;3.142;2022-12-15T04:54:16;52.10;;;36.43;;
18228;SDS011;9239;50.932;3.142;2022-12-15T04:57:01;56.63;;;37.20;;
18228;SDS011;9239;50.932;3.142;2022-12-15T04:59:46;57.80;;;38.17;;
18228;SDS011;9239;50.932;3.142;2022-12-15T05:02:31;53.77;;;37.30;;
18228;SDS011;9239;50.932;3.142;2022-12-15T05:05:15;55.00;;;37.93;;
18228;SDS011;9239;50.932;3.142;2022-12-15T05:08:00;50.77;;;36.73;;
18228;SDS011;9239;50.932;3.142;2022-12-15T05:10:44;52.57;;;36.70;;
18228;SDS011;9239;50.932;3.142;2022-12-15T05:13:28;53.37;;;37.83;;
18228;SDS011;9239;50.932;3.142;2022-12-15T05:16:13;49.60;;;35.73;;
18228;SDS011;9239;50.932;3.142;2022-12-15T05:18:57;52.67;;;35.93;;
18228;SDS011;9239;50.932;3.142;2022-12-15T05:21:41;49.43;;;33.73;;
18228;SDS011;9239;50.932;3.142;2022-12-15T05:24:25;52.40;;;38.40;;
18228;SDS011;9239;50.932;3.142;2022-12-15T05:27:09;49.87;;;36.83;;
18228;SDS011;9239;50.932;3.142;2022-12-15T05:29:54;51.77;;;36.73;;
18228;SDS011;9239;50.932;3.142;2022-12-15T05:32:39;51.07;;;38.00;;
18228;SDS011;9239;50.932;3.142;2022-12-15T05:35:06;55.43;;;41.10;;
18228;SDS011;9239;50.932;3.142;2022-12-15T05:37:33;53.10;;;36.80;;
18228;SDS011;9239;50.932;3.142;2022-12-15T05:40:00;50.53;;;37.50;;
18228;SDS011;9239;50.932;3.142;2022-12-15T05:42:27;55.80;;;37.73;;
18228;SDS011;9239;50.932;3.142;2022-12-15T05:44:54;54.80;;;37.20;;
18228;SDS011;9239;50.932;3.142;2022-12-15T05:47:20;51.37;;;38.40;;
18228;SDS011;9239;50.932;3.142;2022-12-15T05:49:49;52.53;;;37.63;;
18228;SDS011;9239;50.932;3.142;2022-12-15T05:52:15;51.03;;;38.93;;
18228;SDS011;9239;50.932;3.142;2022-12-15T05:54:42;54.50;;;37.10;;
18228;SDS011;9239;50.932;3.142;2022-12-15T05:57:09;51.33;;;36.73;;
18228;SDS011;9239;50.932;3.142;2022-12-15T05:59:36;55.50;;;39.20;;
18228;SDS011;9239;50.932;3.142;2022-12-15T06:02:03;48.37;;;37.53;;
18228;SDS011;9239;50.932;3.142;2022-12-15T06:04:30;52.83;;;37.80;;
18228;SDS011;9239;50.932;3.142;2022-12-15T06:06:58;49.27;;;35.97;;
18228;SDS011;9239;50.932;3.142;2022-12-15T06:09:25;55.13;;;41.13;;
18228;SDS011;9239;50.932;3.142;2022-12-15T06:11:53;56.47;;;37.83;;
18228;SDS011;9239;50.932;3.142;2022-12-15T06:14:20;52.13;;;40.13;;
18228;SDS011;9239;50.932;3.142;2022-12-15T06:16:47;57.43;;;39.47;;
18228;SDS011;9239;50.932;3.142;2022-12-15T06:19:13;60.73;;;40.53;;
18228;SDS011;9239;50.932;3.142;2022-12-15T06:21:40;55.77;;;41.27;;
18228;SDS011;9239;50.932;3.142;2022-12-15T06:24:09;73.83;;;45.27;;
18228;SDS011;9239;50.932;3.142;2022-12-15T06:26:37;75.87;;;48.87;;
18228;SDS011;9239;50.932;3.142;2022-12-15T06:29:06;67.30;;;46.57;;
18228;SDS011;9239;50.932;3.142;2022-12-15T06:31:36;65.23;;;47.77;;
18228;SDS011;9239;50.932;3.142;2022-12-15T06:34:07;67.13;;;44.60;;
18228;SDS011;9239;50.932;3.142;2022-12-15T06:36:36;58.63;;;43.53;;
18228;SDS011;9239;50.932;3.142;2022-12-15T06:39:04;57.80;;;41.63;;
18228;SDS011;9239;50.932;3.142;2022-12-15T06:41:37;63.23;;;43.10;;
18228;SDS011;9239;50.932;3.142;2022-12-15T06:44:06;59.43;;;43.00;;
18228;SDS011;9239;50.932;3.142;2022-12-15T06:46:33;59.77;;;43.43;;
18228;SDS011;9239;50.932;3.142;2022-12-15T06:49:00;67.03;;;43.20;;
18228;SDS011;9239;50.932;3.142;2022-12-15T06:51:27;57.07;;;42.13;;
18228;SDS011;9239;50.932;3.142;2022-12-15T06:53:54;58.27;;;42.13;;
18228;SDS011;9239;50.932;3.142;2022-12-15T06:56:21;62.77;;;43.97;;
18228;SDS011;9239;50.932;3.142;2022-12-15T06:58:51;56.10;;;43.43;;
18228;SDS011;9239;50.932;3.142;2022-12-15T07:01:20;65.53;;;42.47;;
18228;SDS011;9239;50.932;3.142;2022-12-15T07:03:48;54.97;;;41.30;;
18228;SDS011;9239;50.932;3.142;2022-12-15T07:06:15;65.70;;;43.67;;
18228;SDS011;9239;50.932;3.142;2022-12-15T07:08:42;61.37;;;42.00;;
18228;SDS011;9239;50.932;3.142;2022-12-15T07:11:15;56.90;;;42.07;;
18228;SDS011;9239;50.932;3.142;2022-12-15T07:13:42;57.60;;;43.27;;
18228;SDS011;9239;50.932;3.142;2022-12-15T07:16:10;58.47;;;42.27;;
18228;SDS011;9239;50.932;3.142;2022-12-15T07:18:37;56.17;;;40.70;;
18228;SDS011;9239;50.932;3.142;2022-12-15T07:21:05;58.60;;;42.97;;
18228;SDS011;9239;50.932;3.142;2022-12-15T07:23:33;60.73;;;40.63;;
18228;SDS011;9239;50.932;3.142;2022-12-15T07:26:01;54.53;;;41.23;;
18228;SDS011;9239;50.932;3.142;2022-12-15T07:28:29;54.27;;;41.40;;
18228;SDS011;9239;50.932;3.142;2022-12-15T07:30:59;61.13;;;42.07;;
18228;SDS011;9239;50.932;3.142;2022-12-15T07:33:29;57.77;;;40.73;;
18228;SDS011;9239;50.932;3.142;2022-12-15T07:35:57;61.57;;;42.23;;
18228;SDS011;9239;50.932;3.142;2022-12-15T07:38:25;63.20;;;44.93;;
18228;SDS011;9239;50.932;3.142;2022-12-15T07:40:52;76.77;;;53.30;;
18228;SDS011;9239;50.932;3.142;2022-12-15T07:43:19;77.60;;;53.27;;
18228;SDS011;9239;50.932;3.142;2022-12-15T07:45:50;71.43;;;49.23;;
18228;SDS011;9239;50.932;3.142;2022-12-15T07:48:17;73.07;;;51.93;;
18228;SDS011;9239;50.932;3.142;2022-12-15T07:50:45;67.20;;;48.00;;
18228;SDS011;9239;50.932;3.142;2022-12-15T07:53:12;67.43;;;47.63;;
18228;SDS011;9239;50.932;3.142;2022-12-15T07:55:39;67.60;;;47.83;;
18228;SDS011;9239;50.932;3.142;2022-12-15T07:58:06;68.60;;;46.27;;
18228;SDS011;9239;50.932;3.142;2022-12-15T08:00:33;65.97;;;47.50;;
18228;SDS011;9239;50.932;3.142;2022-12-15T08:03:00;64.43;;;47.27;;
18228;SDS011;9239;50.932;3.142;2022-12-15T08:05:27;66.60;;;45.97;;
18228;SDS011;9239;50.932;3.142;2022-12-15T08:07:57;64.73;;;43.73;;
18228;SDS011;9239;50.932;3.142;2022-12-15T08:10:24;59.13;;;43.53;;
18228;SDS011;9239;50.932;3.142;2022-12-15T08:12:51;62.90;;;45.47;;
18228;SDS011;9239;50.932;3.142;2022-12-15T08:15:19;59.37;;;45.23;;
18228;SDS011;9239;50.932;3.142;2022-12-15T08:17:46;64.17;;;49.87;;
18228;SDS011;9239;50.932;3.142;2022-12-15T08:20:13;65.27;;;48.30;;
18228;SDS011;9239;50.932;3.142;2022-12-15T08:22:40;66.43;;;47.20;;
18228;SDS011;9239;50.932;3.142;2022-12-15T08:25:08;64.10;;;45.67;;
18228;SDS011;9239;50.932;3.142;2022-12-15T08:27:35;66.97;;;46.73;;
18228;SDS011;9239;50.932;3.142;2022-12-15T08:30:03;62.77;;;44.63;;
18228;SDS011;9239;50.932;3.142;2022-12-15T08:32:30;66.23;;;46.17;;
18228;SDS011;9239;50.932;3.142;2022-12-15T08:34:57;62.03;;;44.90;;
18228;SDS011;9239;50.932;3.142;2022-12-15T08:37:24;59.93;;;45.10;;
18228;SDS011;9239;50.932;3.142;2022-12-15T08:39:52;57.43;;;43.73;;
18228;SDS011;9239;50.932;3.142;2022-12-15T08:42:20;72.60;;;49.43;;
18228;SDS011;9239;50.932;3.142;2022-12-15T08:44:47;79.10;;;52.33;;
18228;SDS011;9239;50.932;3.142;2022-12-15T08:47:14;71.27;;;52.20;;
18228;SDS011;9239;50.932;3.142;2022-12-15T08:49:41;77.20;;;49.53;;
18228;SDS011;9239;50.932;3.142;2022-12-15T08:52:08;74.70;;;54.53;;
18228;SDS011;9239;50.932;3.142;2022-12-15T08:54:35;69.13;;;50.23;;
18228;SDS011;9239;50.932;3.142;2022-12-15T08:57:02;69.13;;;51.10;;
18228;SDS011;9239;50.932;3.142;2022-12-15T08:59:30;64.13;;;49.43;;
18228;SDS011;9239;50.932;3.142;2022-12-15T09:01:57;70.50;;;47.97;;
18228;SDS011;9239;50.932;3.142;2022-12-15T09:04:24;60.77;;;46.87;;
18228;SDS011;9239;50.932;3.142;2022-12-15T09:06:51;72.60;;;52.47;;
18228;SDS011;9239;50.932;3.142;2022-12-15T09:09:18;82.90;;;55.67;;
18228;SDS011;9239;50.932;3.142;2022-12-15T09:11:45;77.03;;;55.40;;
18228;SDS011;9239;50.932;3.142;2022-12-15T09:14:12;80.40;;;55.70;;
18228;SDS011;9239;50.932;3.142;2022-12-15T09:16:41;77.07;;;53.23;;
18228;SDS011;9239;50.932;3.142;2022-12-15T09:19:08;72.73;;;55.47;;
18228;SDS011;9239;50.932;3.142;2022-12-15T09:21:35;80.00;;;54.40;;
18228;SDS011;9239;50.932;3.142;2022-12-15T09:24:04;73.57;;;54.60;;
18228;SDS011;9239;50.932;3.142;2022-12-15T09:26:32;80.43;;;53.90;;
18228;SDS011;9239;50.932;3.142;2022-12-15T09:29:00;76.57;;;55.03;;
18228;SDS011;9239;50.932;3.142;2022-12-15T09:31:27;78.90;;;54.57;;
18228;SDS011;9239;50.932;3.142;2022-12-15T09:33:58;78.40;;;55.10;;
18228;SDS011;9239;50.932;3.142;2022-12-15T09:36:26;78.37;;;54.90;;
18228;SDS011;9239;50.932;3.142;2022-12-15T09:38:54;80.07;;;53.57;;
18228;SDS011;9239;50.932;3.142;2022-12-15T09:41:21;80.00;;;54.23;;
18228;SDS011;9239;50.932;3.142;2022-12-15T09:43:52;85.77;;;61.13;;
18228;SDS011;9239;50.932;3.142;2022-12-15T09:46:24;84.00;;;56.13;;
18228;SDS011;9239;50.932;3.142;2022-12-15T09:49:00;73.30;;;53.60;;
18228;SDS011;9239;50.932;3.142;2022-12-15T09:51:32;72.70;;;55.13;;
18228;SDS011;9239;50.932;3.142;2022-12-15T09:54:05;84.57;;;60.30;;
18228;SDS011;9239;50.932;3.142;2022-12-15T09:56:36;77.57;;;56.43;;
18228;SDS011;9239;50.932;3.142;2022-12-15T09:59:09;77.23;;;56.00;;
18228;SDS011;9239;50.932;3.142;2022-12-15T10:01:51;75.53;;;55.33;;
18228;SDS011;9239;50.932;3.142;2022-12-15T10:04:28;76.27;;;58.83;;
18228;SDS011;9239;50.932;3.142;2022-12-15T10:07:03;76.23;;;55.50;;
18228;SDS011;9239;50.932;3.142;2022-12-15T10:09:33;79.00;;;59.70;;
18228;SDS011;9239;50.932;3.142;2022-12-15T10:12:04;78.33;;;56.20;;
18228;SDS011;9239;50.932;3.142;2022-12-15T10:14:36;85.03;;;60.97;;
18228;SDS011;9239;50.932;3.142;2022-12-15T10:17:10;88.70;;;59.70;;
18228;SDS011;9239;50.932;3.142;2022-12-15T10:19:48;96.83;;;61.67;;
18228;SDS011;9239;50.932;3.142;2022-12-15T10:22:21;86.83;;;62.17;;
18228;SDS011;9239;50.932;3.142;2022-12-15T10:24:49;89.00;;;62.77;;
18228;SDS011;9239;50.932;3.142;2022-12-15T10:27:24;85.63;;;60.53;;
18228;SDS011;9239;50.932;3.142;2022-12-15T10:30:00;90.17;;;64.23;;
18228;SDS011;9239;50.932;3.142;2022-12-15T10:32:31;94.90;;;64.50;;
18228;SDS011;9239;50.932;3.142;2022-12-15T10:35:10;87.23;;;59.40;;
18228;SDS011;9239;50.932;3.142;2022-12-15T10:37:41;81.10;;;57.30;;
18228;SDS011;9239;50.932;3.142;2022-12-15T10:40:09;82.33;;;58.37;;
18228;SDS011;9239;50.932;3.142;2022-12-15T10:42:44;83.20;;;59.73;;
18228;SDS011;9239;50.932;3.142;2022-12-15T10:45:27;80.13;;;58.50;;
18228;SDS011;9239;50.932;3.142;2022-12-15T10:47:57;81.87;;;58.67;;
18228;SDS011;9239;50.932;3.142;2022-12-15T10:50:27;76.00;;;55.73;;
18228;SDS011;9239;50.932;3.142;2022-12-15T10:52:54;82.10;;;60.97;;
18228;SDS011;9239;50.932;3.142;2022-12-15T10:55:30;73.93;;;58.37;;
18228;SDS011;9239;50.932;3.142;2022-12-15T10:58:02;81.20;;;59.57;;
18228;SDS011;9239;50.932;3.142;2022-12-15T11:00:39;80.27;;;58.73;;
18228;SDS011;9239;50.932;3.142;2022-12-15T11:03:06;76.10;;;58.93;;
18228;SDS011;9239;50.932;3.142;2022-12-15T11:05:51;74.80;;;54.90;;
18228;SDS011;9239;50.932;3.142;2022-12-15T11:08:18;76.73;;;55.83;;
18228;SDS011;9239;50.932;3.142;2022-12-15T11:10:48;79.83;;;56.87;;
18228;SDS011;9239;50.932;3.142;2022-12-15T11:13:34;74.43;;;53.63;;
18228;SDS011;9239;50.932;3.142;2022-12-15T11:16:09;82.73;;;57.43;;
18228;SDS011;9239;50.932;3.142;2022-12-15T11:18:40;76.90;;;57.83;;
18228;SDS011;9239;50.932;3.142;2022-12-15T11:21:12;74.07;;;54.67;;
18228;SDS011;9239;50.932;3.142;2022-12-15T11:23:54;73.23;;;53.17;;
18228;SDS011;9239;50.932;3.142;2022-12-15T11:26:34;71.00;;;54.83;;
18228;SDS011;9239;50.932;3.142;2022-12-15T11:29:12;70.10;;;53.33;;
18228;SDS011;9239;50.932;3.142;2022-12-15T11:31:49;79.63;;;59.87;;
18228;SDS011;9239;50.932;3.142;2022-12-15T11:34:18;76.33;;;56.63;;
18228;SDS011;9239;50.932;3.142;2022-12-15T11:36:55;67.13;;;52.57;;
18228;SDS011;9239;50.932;3.142;2022-12-15T11:39:55;64.87;;;51.03;;
18228;SDS011;9239;50.932;3.142;2022-12-15T11:42:32;64.17;;;49.93;;
18228;SDS011;9239;50.932;3.142;2022-12-15T11:45:13;60.77;;;47.57;;
18228;SDS011;9239;50.932;3.142;2022-12-15T11:47:47;63.50;;;50.80;;
18228;SDS011;9239;50.932;3.142;2022-12-15T11:50:18;62.70;;;51.53;;
18228;SDS011;9239;50.932;3.142;2022-12-15T11:53:11;64.90;;;52.33;;
18228;SDS011;9239;50.932;3.142;2022-12-15T11:55:50;60.70;;;50.30;;
18228;SDS011;9239;50.932;3.142;2022-12-15T12:01:40;67.37;;;52.03;;
18228;SDS011;9239;50.932;3.142;2022-12-15T12:04:14;65.00;;;51.33;;
18228;SDS011;9239;50.932;3.142;2022-12-15T12:06:50;63.10;;;49.13;;
18228;SDS011;9239;50.932;3.142;2022-12-15T12:09:29;62.63;;;51.40;;
18228;SDS011;9239;50.932;3.142;2022-12-15T12:12:02;72.23;;;55.20;;
18228;SDS011;9239;50.932;3.142;2022-12-15T12:14:43;65.27;;;50.63;;
18228;SDS011;9239;50.932;3.142;2022-12-15T12:17:19;63.23;;;51.57;;
18228;SDS011;9239;50.932;3.142;2022-12-15T12:19:57;60.97;;;47.17;;
18228;SDS011;9239;50.932;3.142;2022-12-15T12:22:29;70.60;;;51.77;;
18228;SDS011;9239;50.932;3.142;2022-12-15T12:25:03;66.33;;;51.80;;
18228;SDS011;9239;50.932;3.142;2022-12-15T12:27:37;71.53;;;50.87;;
18228;SDS011;9239;50.932;3.142;2022-12-15T12:30:10;61.60;;;49.13;;
18228;SDS011;9239;50.932;3.142;2022-12-15T12:32:42;66.63;;;47.50;;
18228;SDS011;9239;50.932;3.142;2022-12-15T12:35:18;63.80;;;47.13;;
18228;SDS011;9239;50.932;3.142;2022-12-15T12:37:51;58.40;;;47.50;;
18228;SDS011;9239;50.932;3.142;2022-12-15T12:40:25;66.17;;;53.07;;
18228;SDS011;9239;50.932;3.142;2022-12-15T12:42:58;64.57;;;51.03;;
18228;SDS011;9239;50.932;3.142;2022-12-15T12:45:26;63.87;;;50.93;;
18228;SDS011;9239;50.932;3.142;2022-12-15T12:47:59;56.50;;;47.90;;
18228;SDS011;9239;50.932;3.142;2022-12-15T12:50:32;67.10;;;50.90;;
18228;SDS011;9239;50.932;3.142;2022-12-15T12:52:59;58.40;;;48.70;;
18228;SDS011;9239;50.932;3.142;2022-12-15T12:55:33;53.87;;;44.63;;
18228;SDS011;9239;50.932;3.142;2022-12-15T12:58:04;59.27;;;44.93;;
18228;SDS011;9239;50.932;3.142;2022-12-15T13:04:03;70.10;;;54.93;;
18228;SDS011;9239;50.932;3.142;2022-12-15T13:09:24;67.80;;;55.27;;
18228;SDS011;9239;50.932;3.142;2022-12-15T13:12:04;69.23;;;54.37;;
18228;SDS011;9239;50.932;3.142;2022-12-15T13:14:58;66.37;;;52.13;;
18228;SDS011;9239;50.932;3.142;2022-12-15T13:17:29;63.40;;;51.90;;
18228;SDS011;9239;50.932;3.142;2022-12-15T13:20:06;63.13;;;50.97;;
18228;SDS011;9239;50.932;3.142;2022-12-15T13:22:55;64.17;;;49.97;;
18228;SDS011;9239;50.932;3.142;2022-12-15T13:25:38;57.90;;;46.70;;
18228;SDS011;9239;50.932;3.142;2022-12-15T13:28:18;55.73;;;44.30;;
18228;SDS011;9239;50.932;3.142;2022-12-15T13:33:50;49.43;;;37.10;;
18228;SDS011;9239;50.932;3.142;2022-12-15T13:39:31;41.40;;;35.70;;
18228;SDS011;9239;50.932;3.142;2022-12-15T13:42:23;41.57;;;34.50;;
18228;SDS011;9239;50.932;3.142;2022-12-15T13:48:13;37.27;;;28.30;;
18228;SDS011;9239;50.932;3.142;2022-12-15T13:53:51;28.73;;;22.33;;
18228;SDS011;9239;50.932;3.142;2022-12-15T13:59:11;35.03;;;26.67;;
18228;SDS011;9239;50.932;3.142;2022-12-15T14:01:46;51.03;;;42.70;;
18228;SDS011;9239;50.932;3.142;2022-12-15T14:04:16;57.77;;;47.67;;
18228;SDS011;9239;50.932;3.142;2022-12-15T14:06:45;59.17;;;47.23;;
18228;SDS011;9239;50.932;3.142;2022-12-15T14:09:14;57.97;;;47.47;;
18228;SDS011;9239;50.932;3.142;2022-12-15T14:11:45;41.00;;;36.63;;
18228;SDS011;9239;50.932;3.142;2022-12-15T14:14:15;35.57;;;27.60;;
18228;SDS011;9239;50.932;3.142;2022-12-15T14:16:44;31.20;;;27.17;;
18228;SDS011;9239;50.932;3.142;2022-12-15T14:19:17;24.33;;;19.03;;
18228;SDS011;9239;50.932;3.142;2022-12-15T14:21:48;23.87;;;18.20;;
18228;SDS011;9239;50.932;3.142;2022-12-15T14:24:24;21.43;;;16.67;;
18228;SDS011;9239;50.932;3.142;2022-12-15T14:26:53;18.30;;;16.40;;
18228;SDS011;9239;50.932;3.142;2022-12-15T14:29:20;20.13;;;16.57;;
18228;SDS011;9239;50.932;3.142;2022-12-15T14:31:49;20.70;;;16.80;;
18228;SDS011;9239;50.932;3.142;2022-12-15T14:34:22;21.73;;;17.60;;
18228;SDS011;9239;50.932;3.142;2022-12-15T14:36:52;21.60;;;15.93;;
18228;SDS011;9239;50.932;3.142;2022-12-15T14:39:22;19.50;;;16.90;;
18228;SDS011;9239;50.932;3.142;2022-12-15T14:41:53;20.57;;;16.87;;
18228;SDS011;9239;50.932;3.142;2022-12-15T14:44:26;22.83;;;18.30;;
18228;SDS011;9239;50.932;3.142;2022-12-15T14:46:56;22.07;;;17.40;;
18228;SDS011;9239;50.932;3.142;2022-12-15T14:49:26;24.63;;;19.63;;
18228;SDS011;9239;50.932;3.142;2022-12-15T14:51:57;24.30;;;19.07;;
18228;SDS011;9239;50.932;3.142;2022-12-15T14:54:27;26.37;;;19.07;;
18228;SDS011;9239;50.932;3.142;2022-12-15T14:56:58;24.70;;;18.73;;
18228;SDS011;9239;50.932;3.142;2022-12-15T14:59:29;22.57;;;17.63;;
18228;SDS011;9239;50.932;3.142;2022-12-15T15:02:04;22.00;;;17.90;;
18228;SDS011;9239;50.932;3.142;2022-12-15T15:04:39;23.70;;;18.10;;
18228;SDS011;9239;50.932;3.142;2022-12-15T15:07:06;23.53;;;20.17;;
18228;SDS011;9239;50.932;3.142;2022-12-15T15:09:41;31.17;;;23.23;;
18228;SDS011;9239;50.932;3.142;2022-12-15T15:12:12;26.97;;;24.10;;
18228;SDS011;9239;50.932;3.142;2022-12-15T15:14:41;33.00;;;25.70;;
18228;SDS011;9239;50.932;3.142;2022-12-15T15:17:13;37.20;;;30.87;;
18228;SDS011;9239;50.932;3.142;2022-12-15T15:19:47;41.53;;;34.20;;
18228;SDS011;9239;50.932;3.142;2022-12-15T15:22:23;35.33;;;30.00;;
18228;SDS011;9239;50.932;3.142;2022-12-15T15:24:55;41.00;;;31.33;;
18228;SDS011;9239;50.932;3.142;2022-12-15T15:27:23;41.07;;;33.53;;
18228;SDS011;9239;50.932;3.142;2022-12-15T15:30:13;46.37;;;32.40;;
18228;SDS011;9239;50.932;3.142;2022-12-15T15:32:48;56.57;;;36.07;;
18228;SDS011;9239;50.932;3.142;2022-12-15T15:35:22;52.37;;;37.17;;
18228;SDS011;9239;50.932;3.142;2022-12-15T15:37:50;48.50;;;37.87;;